• Join FlightAware (Why Join?)
  • Login
  • US Flag 
12:48PM EDT


 

Airport Tracker/Info


-or-


 

Live Flight TrackerFlight Track Log ✈ RPA4937 ✈ 10-May-2013 ✈ KBWI - KEWR

Flight Track Log - Related Links

Times and Time Zones

All times are in EDT time to prevent confusion due to time zone crossing. See the RPA4937 flight status page for this flight to view local times or setup timezone preferences in your user account.

Time Position Orientation Groundspeed Altitude Reporting Facility
EDT Latitude Longitude Course Direction KTS MPH feet Rate Location/Type
05:48AM 39.2167 -76.6833 43° Northeast 168 193 2,000  Level Potomac TRACON
05:49AM 39.2667 -76.6667 14° North 216 249 4,200 2,280 Climbing Potomac TRACON
05:50AM 39.3000 -76.6167 49° Northeast 260 299 6,600 2,400 Climbing Potomac TRACON
05:51AM 39.1885 -76.1653 46° Northeast  Level FlightAware Approximate
05:51AM 39.3000 -76.5167 90° East 263 303 9,100  Level Potomac TRACON
05:52AM 39.2657 -76.0791 46° Northeast  Level FlightAware Approximate
05:52AM 39.2833 -76.4333 104° East 274 315 11,000  Level Potomac TRACON
05:53AM 39.3394 -75.9874 42° Northeast  Level FlightAware Approximate
05:53AM 39.2833 -76.3167 90° East 340 391 11,000  Level Potomac TRACON
05:54AM 39.4152 -75.8985 43° Northeast  Level FlightAware Approximate
05:54AM 39.3167 -76.2000 70° East 336 387 11,000  Level Potomac TRACON
05:56AM 39.4167 -76.0333 52° Northeast 334 384 11,000  Level Philadelphia TRACON
05:57AM 39.4667 -75.9333 57° Northeast 337 388 11,000  Level Philadelphia TRACON
05:58AM 39.5167 -75.8167 61° Northeast 335 386 11,000  Level Philadelphia TRACON
05:59AM 39.5667 -75.7167 57° Northeast 335 386 11,000  Level Philadelphia TRACON
06:00AM 39.6000 -75.6167 67° East 334 384 11,000  Level Philadelphia TRACON
06:01AM 39.6500 -75.5000 61° Northeast 334 384 11,000  Level Philadelphia TRACON
06:02AM 39.6833 -75.4000 67° East 333 383 11,000 -120 Level Philadelphia TRACON
06:03AM 39.7333 -75.3000 57° Northeast 334 384 10,800 -540 Descending Philadelphia TRACON
06:04AM 39.7667 -75.1833 70° East 327 376 10,000 -420 Descending Philadelphia TRACON
06:05AM 39.8167 -75.0833 57° Northeast 330 380 10,000  Level Philadelphia TRACON
06:06AM 39.8667 -74.9833 57° Northeast 329 379 10,000 -300 Level Philadelphia TRACON
06:07AM 39.9167 -74.9000 52° Northeast 309 356 9,500 -900 Descending Philadelphia TRACON
06:08AM 39.9667 -74.8333 46° Northeast 283 326 8,300 -1,320 Descending New York TRACON
06:09AM 40.0167 -74.7500 52° Northeast 274 315 7,100 -600 Descending New York TRACON
06:10AM 40.0667 -74.6833 46° Northeast 266 306 7,100  Level New York TRACON
06:11AM 40.1333 -74.6500 21° North 255 293 7,100 -60 Level New York TRACON
06:12AM 40.2000 -74.6333 11° North 253 291 7,000 -540 Descending New York TRACON
06:13AM 40.2833 -74.6167 North 252 290 6,100 -480 Descending New York TRACON
06:14AM 40.3500 -74.6000 11° North 254 292 6,100  Level New York TRACON
06:15AM 40.4167 -74.5833 11° North 255 293 6,100 -300 Level New York TRACON
06:16AM 40.4833 -74.5667 11° North 245 282 5,600 -540 Descending New York TRACON
06:17AM 40.5500 -74.5500 11° North 241 277 5,100 -300 Descending New York TRACON
06:18AM 40.6167 -74.5333 11° North 247 284 5,100  Level New York TRACON
06:19AM 40.6833 -74.5333 360° North 248 285 5,100  Level New York TRACON
06:20AM 40.7500 -74.4833 30° Northeast 254 292 5,100 -300 Level New York TRACON
06:21AM 40.7833 -74.4167 57° Northeast 258 297 4,500 -780 Descending New York TRACON
06:22AM 40.8000 -74.3333 75° East 247 284 3,700 -840 Descending New York TRACON
06:23AM 40.8333 -74.2500 62° Northeast 231 266 2,900 -600 Descending New York TRACON
06:24AM 40.8333 -74.1833 90° East 198 228 2,600 -360 Descending New York TRACON